createdAt,value
2019-04-10T00:02:59.540Z,5.23
2019-04-10T00:08:01.888Z,5.09
2019-04-10T00:13:04.515Z,5.05
2019-04-10T00:18:07.503Z,5.02
2019-04-10T00:23:11.305Z,4.96
2019-04-10T00:28:13.160Z,4.81
2019-04-10T00:33:16.613Z,4.59
2019-04-10T00:38:19.766Z,4.61
2019-04-10T00:43:22.582Z,4.39
2019-04-10T00:48:24.680Z,4.51
2019-04-10T00:53:27.331Z,4.36
2019-04-10T00:58:30.165Z,4.30
2019-04-10T01:03:46.732Z,4.15
2019-04-10T01:08:48.917Z,4.07
2019-04-10T01:13:51.714Z,3.93
2019-04-10T01:18:53.677Z,4.05
2019-04-10T01:23:55.583Z,3.98
2019-04-10T01:28:57.570Z,3.96
2019-04-10T01:34:01.068Z,3.99
2019-04-10T01:39:07.315Z,3.92
2019-04-10T01:44:11.040Z,3.85
2019-04-10T01:49:15.582Z,3.84
2019-04-10T01:54:17.715Z,3.84
2019-04-10T01:59:21.594Z,3.73
2019-04-10T02:04:24.765Z,3.72
2019-04-10T02:09:27.622Z,3.52
2019-04-10T02:14:30.004Z,3.67
2019-04-10T02:19:32.346Z,3.64
2019-04-10T02:24:34.263Z,3.47
2019-04-10T02:29:36.136Z,3.48
2019-04-10T02:34:39.373Z,3.50
2019-04-10T02:39:47.022Z,3.43
2019-04-10T02:44:45.889Z,3.37
2019-04-10T02:49:49.207Z,3.33
2019-04-10T02:54:51.342Z,3.26
2019-04-10T02:59:55.771Z,3.11
2019-04-10T03:04:59.230Z,3.14
2019-04-10T03:15:17.000Z,2.84
2019-04-10T03:20:20.366Z,2.85
2019-04-10T03:25:22.493Z,2.66
2019-04-10T03:30:24.743Z,2.67
2019-04-10T03:35:32.790Z,2.57
2019-04-10T03:40:35.468Z,2.51
2019-04-10T03:45:37.436Z,2.57
2019-04-10T03:50:39.618Z,2.59
2019-04-10T03:55:41.599Z,2.61
2019-04-10T04:00:44.814Z,2.55
2019-04-10T04:05:46.808Z,2.57
2019-04-10T04:10:49.028Z,2.58
2019-04-10T04:15:51.053Z,2.39
2019-04-10T04:20:53.069Z,2.46
2019-04-10T04:25:55.172Z,2.38
2019-04-10T04:30:57.092Z,2.25
2019-04-10T04:35:59.913Z,2.12
2019-04-10T04:41:02.419Z,2.08
2019-04-10T04:46:04.372Z,2.21
2019-04-10T04:51:06.734Z,2.21
2019-04-10T04:56:09.493Z,2.23
2019-04-10T05:01:12.586Z,2.12
2019-04-10T05:06:14.613Z,2.17
2019-04-10T05:11:16.484Z,1.75
2019-04-10T05:16:18.768Z,1.77
2019-04-10T05:21:21.339Z,1.50
2019-04-10T05:26:23.317Z,1.45
2019-04-10T05:31:25.611Z,1.55
2019-04-10T05:36:27.624Z,1.52
2019-04-10T05:41:29.532Z,1.33
2019-04-10T05:46:32.495Z,1.60
2019-04-10T05:51:34.603Z,1.51
2019-04-10T05:56:36.522Z,1.54
2019-04-10T06:01:41.179Z,1.51
2019-04-10T06:06:44.305Z,1.73
2019-04-10T06:11:47.381Z,1.88
2019-04-10T06:16:49.352Z,1.98
2019-04-10T06:21:52.434Z,2.12
2019-04-10T06:26:54.457Z,2.20
2019-04-10T06:31:56.980Z,2.37
2019-04-10T06:36:59.863Z,2.39
2019-04-10T06:42:02.525Z,2.77
2019-04-10T06:47:04.578Z,2.77
2019-04-10T06:52:06.493Z,3.04
2019-04-10T06:57:08.400Z,3.40
2019-04-10T07:02:16.631Z,4.02
2019-04-10T07:07:18.118Z,4.02
2019-04-10T07:12:23.784Z,4.41
2019-04-10T07:17:25.044Z,4.55
2019-04-10T07:22:27.167Z,4.83
2019-04-10T07:27:33.580Z,5.22
2019-04-10T07:32:33.911Z,5.66
2019-04-10T07:37:36.277Z,5.91
2019-04-10T07:42:41.318Z,6.22
2019-04-10T07:47:42.127Z,6.56
2019-04-10T07:52:43.975Z,6.74
2019-04-10T07:57:47.742Z,6.98
2019-04-10T08:02:49.674Z,7.16
2019-04-10T08:07:55.962Z,7.27
2019-04-10T08:12:58.146Z,7.53
2019-04-10T08:18:00.450Z,7.78
2019-04-10T08:23:03.592Z,7.92
2019-04-10T08:28:05.746Z,7.97
2019-04-10T08:33:07.900Z,8.24
2019-04-10T08:38:09.866Z,8.52
2019-04-10T08:43:11.853Z,8.71
2019-04-10T08:48:13.757Z,8.88
2019-04-10T08:53:15.653Z,8.84
2019-04-10T08:58:18.750Z,9.12
2019-04-10T09:03:20.759Z,9.22
2019-04-10T09:08:22.681Z,9.42
2019-04-10T09:13:24.593Z,9.69
2019-04-10T09:18:27.364Z,9.80
2019-04-10T09:23:39.091Z,9.69
2019-04-10T09:28:33.321Z,9.92
2019-04-10T09:33:35.300Z,10.39
2019-04-10T09:38:37.333Z,11.09
2019-04-10T09:43:40.033Z,10.44
2019-04-10T09:48:42.186Z,10.58
2019-04-10T09:53:44.039Z,10.87
2019-04-10T09:58:46.810Z,10.85
2019-04-10T10:03:48.842Z,11.14
2019-04-10T10:08:50.904Z,11.11
2019-04-10T10:13:52.794Z,11.22
2019-04-10T10:18:54.671Z,11.16
2019-04-10T10:23:56.570Z,11.14
2019-04-10T10:28:58.653Z,10.90
2019-04-10T10:34:01.809Z,11.15
2019-04-10T10:39:13.463Z,11.46
2019-04-10T10:44:17.523Z,11.79
2019-04-10T10:49:20.531Z,12.13
2019-04-10T10:54:23.118Z,12.33
2019-04-10T10:59:25.280Z,12.70
2019-04-10T11:04:27.402Z,12.53
2019-04-10T11:09:30.187Z,12.90
2019-04-10T11:14:32.237Z,13.32
2019-04-10T11:19:35.520Z,13.57
2019-04-10T11:24:39.391Z,13.63
2019-04-10T11:29:42.681Z,13.46
2019-04-10T11:34:46.635Z,12.26
2019-04-10T11:39:50.734Z,12.45
2019-04-10T11:44:54.423Z,12.84
2019-04-10T11:49:58.587Z,13.09
2019-04-10T11:55:08.756Z,13.80
2019-04-10T12:00:08.901Z,14.27
2019-04-10T12:05:14.166Z,14.42
2019-04-10T12:15:17.308Z,14.82
2019-04-10T12:20:20.889Z,13.73
2019-04-10T12:25:22.961Z,14.18
2019-04-10T12:30:25.067Z,14.25
2019-04-10T12:35:27.351Z,15.22
2019-04-10T12:40:29.286Z,15.76
2019-04-10T12:45:32.638Z,15.80
2019-04-10T12:50:34.692Z,15.01
2019-04-10T12:55:36.797Z,14.34
2019-04-10T13:00:38.812Z,15.20
2019-04-10T13:05:41.168Z,15.68
2019-04-10T13:10:43.609Z,14.84
2019-04-10T13:15:45.630Z,15.21
2019-04-10T13:20:48.352Z,15.79
2019-04-10T13:25:58.323Z,16.56
2019-04-10T13:30:56.606Z,17.03
2019-04-10T13:35:58.098Z,15.54
2019-04-10T13:41:00.076Z,15.50
2019-04-10T13:46:02.623Z,15.94
2019-04-10T13:51:05.364Z,15.19
2019-04-10T13:56:08.653Z,16.84
2019-04-10T14:01:15.467Z,17.96
2019-04-10T14:06:17.450Z,17.47
2019-04-10T14:11:19.558Z,15.21
2019-04-10T14:16:22.393Z,14.81
2019-04-10T14:21:25.575Z,16.26
2019-04-10T14:26:53.721Z,16.57
2019-04-10T14:32:00.769Z,15.59
2019-04-10T14:37:05.192Z,17.28
2019-04-10T14:42:08.565Z,16.00
2019-04-10T14:47:13.346Z,15.60
2019-04-10T14:52:14.996Z,17.56
2019-04-10T14:57:16.975Z,18.57
2019-04-10T15:02:19.144Z,19.14
2019-04-10T15:07:21.852Z,18.19
2019-04-10T15:12:24.690Z,18.21
2019-04-10T15:17:26.746Z,18.75
2019-04-10T15:22:34.473Z,20.11
2019-04-10T15:27:37.511Z,20.62
2019-04-10T15:32:40.025Z,18.69
2019-04-10T15:37:42.318Z,17.64
2019-04-10T15:42:44.395Z,19.52
2019-04-10T15:47:52.658Z,20.27
2019-04-10T15:52:51.473Z,19.47
2019-04-10T15:57:57.893Z,19.57
2019-04-10T16:02:58.549Z,19.05
2019-04-10T16:08:00.826Z,16.95
2019-04-10T16:13:10.116Z,18.60
2019-04-10T16:18:15.636Z,20.12
2019-04-10T16:23:31.602Z,20.23
2019-04-10T16:28:33.623Z,18.86
2019-04-10T16:33:35.805Z,17.13
2019-04-10T16:38:38.540Z,15.71
2019-04-10T16:43:40.713Z,16.92
2019-04-10T16:48:42.918Z,17.91
2019-04-10T16:53:45.487Z,18.82
2019-04-10T16:58:47.947Z,18.31
2019-04-10T17:03:50.365Z,16.33
2019-04-10T17:08:54.387Z,15.61
2019-04-10T17:13:57.204Z,14.51
2019-04-10T17:18:59.321Z,14.34
2019-04-10T17:24:01.262Z,14.57
2019-04-10T17:29:03.365Z,14.04
2019-04-10T17:34:06.126Z,13.53
2019-04-10T17:39:11.217Z,12.30
2019-04-10T17:44:13.770Z,11.68
2019-04-10T17:49:17.020Z,11.39
2019-04-10T17:54:20.014Z,11.35
2019-04-10T17:59:22.508Z,10.91
2019-04-10T18:04:24.653Z,10.87
2019-04-10T18:09:27.079Z,10.41
2019-04-10T18:14:29.179Z,10.23
2019-04-10T18:19:32.413Z,10.04
2019-04-10T18:24:34.557Z,9.95
2019-04-10T18:29:36.475Z,9.80
2019-04-10T18:34:38.493Z,9.62
2019-04-10T18:39:40.876Z,9.39
2019-04-10T18:44:43.077Z,9.42
2019-04-10T18:49:45.514Z,9.13
2019-04-10T18:54:47.889Z,9.08
2019-04-10T19:00:03.337Z,8.93
2019-04-10T19:05:16.968Z,8.60
2019-04-10T19:10:19.891Z,8.84
2019-04-10T19:15:22.442Z,8.36
2019-04-10T19:20:24.890Z,8.34
2019-04-10T19:25:27.433Z,8.09
2019-04-10T19:30:35.779Z,7.90
2019-04-10T19:35:37.711Z,7.85
2019-04-10T19:40:40.386Z,7.60
2019-04-10T19:45:43.806Z,7.60
2019-04-10T19:50:46.088Z,7.46
2019-04-10T19:55:48.324Z,7.02
2019-04-10T20:00:50.643Z,7.16
2019-04-10T20:05:53.468Z,6.95
2019-04-10T20:10:55.572Z,6.82
2019-04-10T20:15:58.627Z,6.97
2019-04-10T20:21:01.710Z,6.57
2019-04-10T20:26:05.054Z,6.66
2019-04-10T20:31:10.716Z,6.32
2019-04-10T20:36:13.040Z,6.29
2019-04-10T20:41:16.208Z,6.55
2019-04-10T20:46:18.508Z,6.16
2019-04-10T20:51:20.727Z,6.14
2019-04-10T20:56:22.675Z,6.02
2019-04-10T21:01:24.853Z,5.94
2019-04-10T21:06:27.138Z,6.04
2019-04-10T21:11:29.244Z,5.87
2019-04-10T21:16:31.522Z,5.83
2019-04-10T21:21:33.404Z,5.75
2019-04-10T21:26:36.728Z,5.83
2019-04-10T21:31:48.347Z,5.86
2019-04-10T21:36:51.187Z,5.68
2019-04-10T21:41:54.256Z,5.61
2019-04-10T21:46:57.153Z,5.57
2019-04-10T21:52:00.395Z,5.45
2019-04-10T21:57:02.295Z,5.39
2019-04-10T22:02:04.875Z,5.30
2019-04-10T22:07:27.778Z,5.33
2019-04-10T22:12:34.162Z,5.24
2019-04-10T22:17:34.175Z,4.92
2019-04-10T22:22:37.171Z,5.15
2019-04-10T22:27:39.680Z,5.04
2019-04-10T22:32:42.859Z,5.08
2019-04-10T22:37:46.244Z,4.97
2019-04-10T22:42:49.778Z,4.72
2019-04-10T22:47:52.162Z,4.58
2019-04-10T22:52:54.974Z,4.52
2019-04-10T22:57:57.072Z,4.55
2019-04-10T23:03:00.713Z,4.38
2019-04-10T23:08:03.356Z,4.42
2019-04-10T23:13:07.522Z,4.44
2019-04-10T23:18:10.241Z,4.17
2019-04-10T23:23:12.351Z,4.23
2019-04-10T23:28:14.245Z,4.19
2019-04-10T23:33:16.106Z,4.18
2019-04-10T23:38:18.137Z,4.15
2019-04-10T23:43:22.340Z,3.96
2019-04-10T23:48:24.948Z,3.90
2019-04-10T23:53:26.854Z,3.82
2019-04-10T23:58:29.749Z,3.80
